sensor_id;sensor_type;location;lat;lon;timestamp;pressure;altitude;pressure_sealevel;temperature;humidity
71772;BME280;59606;52.138;5.424;2023-04-01T00:01:23;99167.03;;;9.72;100.00
71772;BME280;59606;52.138;5.424;2023-04-01T00:03:49;99164.44;;;9.72;100.00
71772;BME280;59606;52.138;5.424;2023-04-01T00:06:17;99168.81;;;9.71;100.00
71772;BME280;59606;52.138;5.424;2023-04-01T00:08:44;99161.84;;;9.72;100.00
71772;BME280;59606;52.138;5.424;2023-04-01T00:11:11;99161.72;;;9.73;100.00
71772;BME280;59606;52.138;5.424;2023-04-01T00:13:38;99166.09;;;9.73;100.00
71772;BME280;59606;52.138;5.424;2023-04-01T00:16:04;99166.09;;;9.73;100.00
71772;BME280;59606;52.138;5.424;2023-04-01T00:18:45;99172.13;;;9.73;100.00
71772;BME280;59606;52.138;5.424;2023-04-01T00:21:13;99175.78;;;9.71;100.00
71772;BME280;59606;52.138;5.424;2023-04-01T00:23:39;99178.41;;;9.71;100.00
71772;BME280;59606;52.138;5.424;2023-04-01T00:26:06;99179.34;;;9.70;100.00
71772;BME280;59606;52.138;5.424;2023-04-01T00:28:34;99184.56;;;9.70;100.00
71772;BME280;59606;52.138;5.424;2023-04-01T00:31:04;99177.66;;;9.68;100.00
71772;BME280;59606;52.138;5.424;2023-04-01T00:33:34;99183.69;;;9.69;100.00
71772;BME280;59606;52.138;5.424;2023-04-01T00:36:09;99184.78;;;9.66;100.00
71772;BME280;59606;52.138;5.424;2023-04-01T00:38:37;99187.38;;;9.66;100.00
71772;BME280;59606;52.138;5.424;2023-04-01T00:41:05;99182.28;;;9.65;100.00
71772;BME280;59606;52.138;5.424;2023-04-01T00:43:32;99171.06;;;9.64;100.00
71772;BME280;59606;52.138;5.424;2023-04-01T00:45:58;99181.47;;;9.64;100.00
71772;BME280;59606;52.138;5.424;2023-04-01T00:48:31;99177.22;;;9.63;100.00
71772;BME280;59606;52.138;5.424;2023-04-01T00:53:29;99181.59;;;9.63;100.00
71772;BME280;59606;52.138;5.424;2023-04-01T00:56:04;99183.47;;;9.61;100.00
71772;BME280;59606;52.138;5.424;2023-04-01T00:58:38;99184.44;;;9.60;100.00
71772;BME280;59606;52.138;5.424;2023-04-01T01:01:06;99193.88;;;9.61;100.00
71772;BME280;59606;52.138;5.424;2023-04-01T01:03:34;99184.44;;;9.60;100.00
71772;BME280;59606;52.138;5.424;2023-04-01T01:06:24;99199.06;;;9.61;100.00
71772;BME280;59606;52.138;5.424;2023-04-01T01:14:48;99196.84;;;9.56;100.00
71772;BME280;59606;52.138;5.424;2023-04-01T01:17:25;99197.75;;;9.55;100.00
71772;BME280;59606;52.138;5.424;2023-04-01T01:31:37;99201.78;;;9.48;100.00
71772;BME280;59606;52.138;5.424;2023-04-01T01:34:23;99210.41;;;9.49;100.00
71772;BME280;59606;52.138;5.424;2023-04-01T01:37:02;99201.19;;;9.44;100.00
71772;BME280;59606;52.138;5.424;2023-04-01T01:39:34;99203.09;;;9.42;100.00
71772;BME280;59606;52.138;5.424;2023-04-01T01:42:04;99209.22;;;9.41;100.00
71772;BME280;59606;52.138;5.424;2023-04-01T01:44:33;99203.34;;;9.39;100.00
71772;BME280;59606;52.138;5.424;2023-04-01T01:47:02;99211.94;;;9.40;100.00
71772;BME280;59606;52.138;5.424;2023-04-01T01:49:29;99210.31;;;9.39;100.00
71772;BME280;59606;52.138;5.424;2023-04-01T01:51:58;99213.81;;;9.38;100.00
71772;BME280;59606;52.138;5.424;2023-04-01T01:54:24;99211.47;;;9.35;100.00
71772;BME280;59606;52.138;5.424;2023-04-01T01:57:01;99222.09;;;9.32;100.00
71772;BME280;59606;52.138;5.424;2023-04-01T01:59:33;99221.38;;;9.30;100.00
71772;BME280;59606;52.138;5.424;2023-04-01T02:02:01;99212.88;;;9.28;100.00
71772;BME280;59606;52.138;5.424;2023-04-01T02:04:42;99219.84;;;9.27;100.00
71772;BME280;59606;52.138;5.424;2023-04-01T02:07:15;99213.94;;;9.25;100.00
71772;BME280;59606;52.138;5.424;2023-04-01T02:09:44;99225.41;;;9.23;100.00
71772;BME280;59606;52.138;5.424;2023-04-01T02:12:13;99221.03;;;9.23;100.00
71772;BME280;59606;52.138;5.424;2023-04-01T02:17:24;99221.25;;;9.20;100.00
71772;BME280;59606;52.138;5.424;2023-04-01T02:19:58;99219.47;;;9.20;100.00
71772;BME280;59606;52.138;5.424;2023-04-01T02:22:34;99225.72;;;9.18;100.00
71772;BME280;59606;52.138;5.424;2023-04-01T02:25:05;99229.28;;;9.17;100.00
71772;BME280;59606;52.138;5.424;2023-04-01T02:27:32;99225.84;;;9.16;100.00
71772;BME280;59606;52.138;5.424;2023-04-01T02:29:59;99231.16;;;9.15;100.00
71772;BME280;59606;52.138;5.424;2023-04-01T02:32:27;99226.81;;;9.15;100.00
71772;BME280;59606;52.138;5.424;2023-04-01T02:34:55;99230.31;;;9.14;100.00
71772;BME280;59606;52.138;5.424;2023-04-01T02:37:22;99229.50;;;9.14;100.00
71772;BME280;59606;52.138;5.424;2023-04-01T02:39:49;99233.06;;;9.13;100.00
71772;BME280;59606;52.138;5.424;2023-04-01T02:42:16;99235.66;;;9.13;100.00
71772;BME280;59606;52.138;5.424;2023-04-01T02:44:42;99228.78;;;9.12;100.00
71772;BME280;59606;52.138;5.424;2023-04-01T02:47:09;99229.63;;;9.12;100.00
71772;BME280;59606;52.138;5.424;2023-04-01T02:49:35;99240.13;;;9.11;100.00
71772;BME280;59606;52.138;5.424;2023-04-01T02:52:02;99234.22;;;9.09;100.00
71772;BME280;59606;52.138;5.424;2023-04-01T02:54:28;99242.72;;;9.11;100.00
71772;BME280;59606;52.138;5.424;2023-04-01T02:56:55;99239.16;;;9.12;100.00
71772;BME280;59606;52.138;5.424;2023-04-01T02:59:24;99246.25;;;9.10;100.00
71772;BME280;59606;52.138;5.424;2023-04-01T03:01:50;99242.13;;;9.07;100.00
71772;BME280;59606;52.138;5.424;2023-04-01T03:04:16;99240.25;;;9.09;100.00
71772;BME280;59606;52.138;5.424;2023-04-01T03:06:43;99248.97;;;9.08;100.00
71772;BME280;59606;52.138;5.424;2023-04-01T03:09:09;99249.09;;;9.07;100.00
71772;BME280;59606;52.138;5.424;2023-04-01T03:11:39;99250.72;;;9.08;100.00
71772;BME280;59606;52.138;5.424;2023-04-01T03:14:07;99255.25;;;9.06;100.00
71772;BME280;59606;52.138;5.424;2023-04-01T03:16:33;99260.44;;;9.06;100.00
71772;BME280;59606;52.138;5.424;2023-04-01T03:18:59;99261.13;;;9.08;100.00
71772;BME280;59606;52.138;5.424;2023-04-01T03:21:28;99266.22;;;9.09;100.00
71772;BME280;59606;52.138;5.424;2023-04-01T03:23:54;99264.69;;;9.07;100.00
71772;BME280;59606;52.138;5.424;2023-04-01T03:26:21;99264.69;;;9.07;100.00
71772;BME280;59606;52.138;5.424;2023-04-01T03:28:47;99269.97;;;9.05;100.00
71772;BME280;59606;52.138;5.424;2023-04-01T03:31:14;99273.28;;;9.07;100.00
71772;BME280;59606;52.138;5.424;2023-04-01T03:33:42;99279.44;;;9.06;100.00
71772;BME280;59606;52.138;5.424;2023-04-01T03:36:09;99276.84;;;9.06;100.00
71772;BME280;59606;52.138;5.424;2023-04-01T03:38:39;99281.81;;;9.09;100.00
71772;BME280;59606;52.138;5.424;2023-04-01T03:41:06;99283.47;;;9.10;100.00
71772;BME280;59606;52.138;5.424;2023-04-01T03:43:33;99289.38;;;9.12;100.00
71772;BME280;59606;52.138;5.424;2023-04-01T03:45:59;99284.28;;;9.11;100.00
71772;BME280;59606;52.138;5.424;2023-04-01T03:48:26;99285.94;;;9.12;100.00
71772;BME280;59606;52.138;5.424;2023-04-01T03:50:53;99291.13;;;9.12;100.00
71772;BME280;59606;52.138;5.424;2023-04-01T03:53:19;99297.19;;;9.12;100.00
71772;BME280;59606;52.138;5.424;2023-04-01T03:55:46;99291.97;;;9.12;100.00
71772;BME280;59606;52.138;5.424;2023-04-01T03:58:13;99296.22;;;9.13;100.00
71772;BME280;59606;52.138;5.424;2023-04-01T04:00:39;99304.97;;;9.12;100.00
71772;BME280;59606;52.138;5.424;2023-04-01T04:03:06;99305.66;;;9.14;100.00
71772;BME280;59606;52.138;5.424;2023-04-01T04:05:33;99309.09;;;9.15;100.00
71772;BME280;59606;52.138;5.424;2023-04-01T04:08:00;99308.41;;;9.13;100.00
71772;BME280;59606;52.138;5.424;2023-04-01T04:10:27;99311.69;;;9.15;100.00
71772;BME280;59606;52.138;5.424;2023-04-01T04:12:55;99315.13;;;9.15;100.00
71772;BME280;59606;52.138;5.424;2023-04-01T04:15:22;99314.28;;;9.15;100.00
71772;BME280;59606;52.138;5.424;2023-04-01T04:17:48;99318.56;;;9.16;100.00
71772;BME280;59606;52.138;5.424;2023-04-01T04:20:15;99326.22;;;9.17;100.00
71772;BME280;59606;52.138;5.424;2023-04-01T04:22:42;99326.34;;;9.16;100.00
71772;BME280;59606;52.138;5.424;2023-04-01T04:25:08;99328.13;;;9.15;100.00
71772;BME280;59606;52.138;5.424;2023-04-01T04:27:35;99327.19;;;9.16;100.00
71772;BME280;59606;52.138;5.424;2023-04-01T04:30:01;99334.03;;;9.17;100.00
71772;BME280;59606;52.138;5.424;2023-04-01T04:32:28;99340.03;;;9.18;100.00
71772;BME280;59606;52.138;5.424;2023-04-01T04:34:56;99346.06;;;9.18;100.00
71772;BME280;59606;52.138;5.424;2023-04-01T04:37:23;99344.31;;;9.19;100.00
71772;BME280;59606;52.138;5.424;2023-04-01T04:39:49;99346.06;;;9.18;100.00
71772;BME280;59606;52.138;5.424;2023-04-01T04:42:16;99349.41;;;9.20;100.00
71772;BME280;59606;52.138;5.424;2023-04-01T04:44:42;99354.59;;;9.20;100.00
71772;BME280;59606;52.138;5.424;2023-04-01T04:47:09;99361.56;;;9.20;100.00
71772;BME280;59606;52.138;5.424;2023-04-01T04:49:35;99359.66;;;9.22;100.00
71772;BME280;59606;52.138;5.424;2023-04-01T04:52:02;99366.53;;;9.23;100.00
71772;BME280;59606;52.138;5.424;2023-04-01T04:54:29;99375.97;;;9.24;100.00
71772;BME280;59606;52.138;5.424;2023-04-01T04:56:55;99381.09;;;9.26;100.00
71772;BME280;59606;52.138;5.424;2023-04-01T04:59:22;99380.00;;;9.28;100.00
71772;BME280;59606;52.138;5.424;2023-04-01T05:01:48;99380.97;;;9.27;100.00
71772;BME280;59606;52.138;5.424;2023-04-01T05:04:15;99384.28;;;9.29;100.00
71772;BME280;59606;52.138;5.424;2023-04-01T05:06:43;99396.31;;;9.30;100.00
71772;BME280;59606;52.138;5.424;2023-04-01T05:09:11;99394.56;;;9.31;100.00
71772;BME280;59606;52.138;5.424;2023-04-01T05:11:37;99398.81;;;9.32;100.00
71772;BME280;59606;52.138;5.424;2023-04-01T05:14:04;99407.47;;;9.32;100.00
71772;BME280;59606;52.138;5.424;2023-04-01T05:16:30;99409.94;;;9.34;100.00
71772;BME280;59606;52.138;5.424;2023-04-01T05:18:57;99413.47;;;9.33;100.00
71772;BME280;59606;52.138;5.424;2023-04-01T05:21:24;99414.31;;;9.33;100.00
71772;BME280;59606;52.138;5.424;2023-04-01T05:23:50;99425.53;;;9.34;100.00
71772;BME280;59606;52.138;5.424;2023-04-01T05:26:17;99426.34;;;9.34;100.00
71772;BME280;59606;52.138;5.424;2023-04-01T05:28:43;99427.16;;;9.35;100.00
71772;BME280;59606;52.138;5.424;2023-04-01T05:31:10;99428.84;;;9.36;100.00
71772;BME280;59606;52.138;5.424;2023-04-01T05:33:36;99437.56;;;9.35;100.00
71772;BME280;59606;52.138;5.424;2023-04-01T05:36:13;99437.47;;;9.36;100.00
71772;BME280;59606;52.138;5.424;2023-04-01T05:38:41;99438.38;;;9.35;100.00
71772;BME280;59606;52.138;5.424;2023-04-01T05:41:08;99445.28;;;9.36;100.00
71772;BME280;59606;52.138;5.424;2023-04-01T05:43:36;99455.66;;;9.36;100.00
71772;BME280;59606;52.138;5.424;2023-04-01T05:46:02;99445.38;;;9.35;100.00
71772;BME280;59606;52.138;5.424;2023-04-01T05:48:29;99453.88;;;9.37;100.00
71772;BME280;59606;52.138;5.424;2023-04-01T05:50:55;99465.13;;;9.37;100.00
71772;BME280;59606;52.138;5.424;2023-04-01T05:53:22;99470.22;;;9.39;100.00
71772;BME280;59606;52.138;5.424;2023-04-01T05:55:48;99467.63;;;9.39;100.00
71772;BME280;59606;52.138;5.424;2023-04-01T05:58:15;99472.81;;;9.39;100.00
71772;BME280;59606;52.138;5.424;2023-04-01T06:00:41;99472.81;;;9.39;100.00
71772;BME280;59606;52.138;5.424;2023-04-01T06:03:08;99476.25;;;9.39;100.00
71772;BME280;59606;52.138;5.424;2023-04-01T06:05:44;99480.50;;;9.40;100.00
71772;BME280;59606;52.138;5.424;2023-04-01T06:08:17;99485.69;;;9.40;100.00
71772;BME280;59606;52.138;5.424;2023-04-01T06:14:01;99492.53;;;9.41;100.00
71772;BME280;59606;52.138;5.424;2023-04-01T06:17:07;99490.75;;;9.42;100.00
71772;BME280;59606;52.138;5.424;2023-04-01T06:20:02;99504.72;;;9.41;100.00
71772;BME280;59606;52.138;5.424;2023-04-01T06:22:58;99511.56;;;9.42;100.00
71772;BME280;59606;52.138;5.424;2023-04-01T06:28:57;99514.28;;;9.40;100.00
71772;BME280;59606;52.138;5.424;2023-04-01T06:31:50;99515.00;;;9.42;100.00
71772;BME280;59606;52.138;5.424;2023-04-01T06:37:50;99529.66;;;9.43;100.00
71772;BME280;59606;52.138;5.424;2023-04-01T06:43:13;99535.56;;;9.45;100.00
71772;BME280;59606;52.138;5.424;2023-04-01T06:45:46;99538.91;;;9.48;100.00
71772;BME280;59606;52.138;5.424;2023-04-01T06:51:39;99559.59;;;9.49;100.00
71772;BME280;59606;52.138;5.424;2023-04-01T06:54:21;99557.00;;;9.49;100.00
71772;BME280;59606;52.138;5.424;2023-04-01T06:56:54;99560.44;;;9.50;100.00
71772;BME280;59606;52.138;5.424;2023-04-01T06:59:28;99561.97;;;9.52;100.00
71772;BME280;59606;52.138;5.424;2023-04-01T07:02:01;99567.06;;;9.54;100.00
71772;BME280;59606;52.138;5.424;2023-04-01T07:04:38;99570.41;;;9.56;100.00
71772;BME280;59606;52.138;5.424;2023-04-01T07:09:48;99583.28;;;9.57;100.00
71772;BME280;59606;52.138;5.424;2023-04-01T07:12:28;99584.94;;;9.58;100.00
71772;BME280;59606;52.138;5.424;2023-04-01T07:15:12;99590.88;;;9.60;100.00
71772;BME280;59606;52.138;5.424;2023-04-01T07:17:43;99597.72;;;9.61;100.00
71772;BME280;59606;52.138;5.424;2023-04-01T07:20:16;99605.22;;;9.66;100.00
71772;BME280;59606;52.138;5.424;2023-04-01T07:22:52;99599.88;;;9.67;100.00
71772;BME280;59606;52.138;5.424;2023-04-01T07:25:24;99613.72;;;9.68;100.00
71772;BME280;59606;52.138;5.424;2023-04-01T07:28:04;99617.75;;;9.72;100.00
71772;BME280;59606;52.138;5.424;2023-04-01T07:33:39;99628.56;;;9.79;100.00
71772;BME280;59606;52.138;5.424;2023-04-01T07:36:22;99634.69;;;9.78;100.00
71772;BME280;59606;52.138;5.424;2023-04-01T07:41:40;99636.47;;;9.77;100.00
71772;BME280;59606;52.138;5.424;2023-04-01T07:44:46;99642.50;;;9.78;100.00
71772;BME280;59606;52.138;5.424;2023-04-01T07:47:25;99658.84;;;9.80;100.00
71772;BME280;59606;52.138;5.424;2023-04-01T07:55:20;99657.16;;;9.79;100.00
71772;BME280;59606;52.138;5.424;2023-04-01T08:06:20;99677.16;;;9.78;100.00
71772;BME280;59606;52.138;5.424;2023-04-01T08:09:10;99686.63;;;9.79;100.00
71772;BME280;59606;52.138;5.424;2023-04-01T08:20:16;99696.59;;;9.85;100.00
71772;BME280;59606;52.138;5.424;2023-04-01T08:22:51;99702.53;;;9.87;100.00
71772;BME280;59606;52.138;5.424;2023-04-01T08:25:26;99712.09;;;9.87;100.00
71772;BME280;59606;52.138;5.424;2023-04-01T08:28:03;99709.59;;;9.85;100.00
71772;BME280;59606;52.138;5.424;2023-04-01T08:30:43;99715.66;;;9.86;100.00
71772;BME280;59606;52.138;5.424;2023-04-01T08:33:31;99722.38;;;9.88;100.00
71772;BME280;59606;52.138;5.424;2023-04-01T08:36:11;99726.88;;;9.86;100.00
71772;BME280;59606;52.138;5.424;2023-04-01T08:38:44;99728.53;;;9.87;100.00
71772;BME280;59606;52.138;5.424;2023-04-01T08:57:36;99761.78;;;10.08;100.00
71772;BME280;59606;52.138;5.424;2023-04-01T09:13:26;99779.88;;;10.22;100.00
71772;BME280;59606;52.138;5.424;2023-04-01T09:37:35;99804.97;;;10.36;100.00
71772;BME280;59606;52.138;5.424;2023-04-01T09:42:45;99809.09;;;10.51;100.00
71772;BME280;59606;52.138;5.424;2023-04-01T09:45:32;99811.66;;;10.64;100.00
71772;BME280;59606;52.138;5.424;2023-04-01T09:51:09;99823.69;;;10.78;100.00
71772;BME280;59606;52.138;5.424;2023-04-01T09:59:32;99825.19;;;10.93;100.00
71772;BME280;59606;52.138;5.424;2023-04-01T10:10:47;99824.72;;;11.70;100.00
71772;BME280;59606;52.138;5.424;2023-04-01T10:18:45;99832.25;;;11.86;100.00
71772;BME280;59606;52.138;5.424;2023-04-01T10:21:36;99835.19;;;11.81;100.00
71772;BME280;59606;52.138;5.424;2023-04-01T10:35:23;99848.09;;;11.71;100.00
71772;BME280;59606;52.138;5.424;2023-04-01T10:52:15;99865.16;;;11.75;100.00
71772;BME280;59606;52.138;5.424;2023-04-01T10:55:14;99865.56;;;11.93;100.00
71772;BME280;59606;52.138;5.424;2023-04-01T10:57:56;99870.81;;;12.05;100.00
71772;BME280;59606;52.138;5.424;2023-04-01T11:23:21;99902.72;;;11.62;100.00
71772;BME280;59606;52.138;5.424;2023-04-01T11:31:35;99922.03;;;11.59;100.00
71772;BME280;59606;52.138;5.424;2023-04-01T11:34:37;99921.59;;;11.65;100.00
71772;BME280;59606;52.138;5.424;2023-04-01T11:39:48;99925.53;;;11.71;100.00
71772;BME280;59606;52.138;5.424;2023-04-01T11:45:19;99933.91;;;11.63;100.00
71772;BME280;59606;52.138;5.424;2023-04-01T11:48:18;99943.97;;;11.56;100.00
71772;BME280;59606;52.138;5.424;2023-04-01T11:56:19;99951.41;;;11.50;100.00
71772;BME280;59606;52.138;5.424;2023-04-01T12:04:54;99961.63;;;11.53;100.00
71772;BME280;59606;52.138;5.424;2023-04-01T12:08:09;99966.50;;;11.57;100.00
71772;BME280;59606;52.138;5.424;2023-04-01T12:27:15;99991.81;;;11.68;100.00
71772;BME280;59606;52.138;5.424;2023-04-01T12:57:30;100026.47;;;11.94;100.00
71772;BME280;59606;52.138;5.424;2023-04-01T13:00:29;100024.34;;;11.99;100.00
71772;BME280;59606;52.138;5.424;2023-04-01T13:08:52;100025.19;;;12.00;100.00
71772;BME280;59606;52.138;5.424;2023-04-01T13:23:04;100052.81;;;11.78;100.00
71772;BME280;59606;52.138;5.424;2023-04-01T13:25:51;100062.53;;;11.76;100.00
71772;BME280;59606;52.138;5.424;2023-04-01T13:28:46;100063.59;;;11.74;100.00
71772;BME280;59606;52.138;5.424;2023-04-01T13:32:16;100065.59;;;11.70;100.00
71772;BME280;59606;52.138;5.424;2023-04-01T13:40:33;100070.78;;;11.46;100.00
71772;BME280;59606;52.138;5.424;2023-04-01T13:43:04;100073.94;;;11.39;100.00
71772;BME280;59606;52.138;5.424;2023-04-01T13:45:41;100074.47;;;11.44;100.00
71772;BME280;59606;52.138;5.424;2023-04-01T13:48:48;100074.88;;;11.38;100.00
71772;BME280;59606;52.138;5.424;2023-04-01T14:05:35;100101.88;;;11.37;100.00
71772;BME280;59606;52.138;5.424;2023-04-01T14:11:16;100119.97;;;11.27;100.00
71772;BME280;59606;52.138;5.424;2023-04-01T14:22:39;100142.59;;;11.01;100.00
71772;BME280;59606;52.138;5.424;2023-04-01T14:28:12;100156.38;;;10.90;100.00
71772;BME280;59606;52.138;5.424;2023-04-01T14:33:46;100162.81;;;10.84;100.00
71772;BME280;59606;52.138;5.424;2023-04-01T14:36:43;100165.63;;;10.81;100.00
71772;BME280;59606;52.138;5.424;2023-04-01T14:39:29;100172.59;;;10.81;100.00
71772;BME280;59606;52.138;5.424;2023-04-01T14:45:08;100185.00;;;10.77;100.00
71772;BME280;59606;52.138;5.424;2023-04-01T14:47:53;100189.19;;;10.80;100.00
71772;BME280;59606;52.138;5.424;2023-04-01T14:50:23;100190.22;;;10.77;100.00
71772;BME280;59606;52.138;5.424;2023-04-01T15:04:19;100221.38;;;10.79;100.00
71772;BME280;59606;52.138;5.424;2023-04-01T15:06:45;100227.41;;;10.79;100.00
71772;BME280;59606;52.138;5.424;2023-04-01T15:09:25;100229.38;;;10.76;100.00
71772;BME280;59606;52.138;5.424;2023-04-01T15:13:04;100233.69;;;10.77;100.00
71772;BME280;59606;52.138;5.424;2023-04-01T15:15:30;100237.94;;;10.78;100.00
71772;BME280;59606;52.138;5.424;2023-04-01T15:18:18;100240.56;;;10.78;100.00
71772;BME280;59606;52.138;5.424;2023-04-01T15:24:20;100252.34;;;10.83;100.00
71772;BME280;59606;52.138;5.424;2023-04-01T15:35:21;100278.09;;;10.88;100.00
71772;BME280;59606;52.138;5.424;2023-04-01T15:38:27;100272.34;;;10.83;100.00
71772;BME280;59606;52.138;5.424;2023-04-01T15:54:24;100314.91;;;10.69;100.00
71772;BME280;59606;52.138;5.424;2023-04-01T15:57:59;100314.19;;;10.67;100.00
71772;BME280;59606;52.138;5.424;2023-04-01T16:11:08;100358.72;;;10.50;100.00
71772;BME280;59606;52.138;5.424;2023-04-01T16:22:00;100371.66;;;10.37;100.00
71772;BME280;59606;52.138;5.424;2023-04-01T16:24:43;100388.28;;;10.34;100.00
71772;BME280;59606;52.138;5.424;2023-04-01T16:27:17;100386.81;;;10.30;100.00
71772;BME280;59606;52.138;5.424;2023-04-01T16:29:49;100393.78;;;10.30;100.00
71772;BME280;59606;52.138;5.424;2023-04-01T16:37:45;100413.25;;;10.23;100.00
71772;BME280;59606;52.138;5.424;2023-04-01T16:40:43;100413.47;;;10.20;100.00
71772;BME280;59606;52.138;5.424;2023-04-01T16:43:20;100424.25;;;10.13;100.00
71772;BME280;59606;52.138;5.424;2023-04-01T16:46:26;100423.59;;;10.10;100.00
71772;BME280;59606;52.138;5.424;2023-04-01T16:54:25;100448.97;;;10.06;100.00
71772;BME280;59606;52.138;5.424;2023-04-01T16:57:15;100451.91;;;10.00;100.00
71772;BME280;59606;52.138;5.424;2023-04-01T16:59:54;100456.38;;;9.98;100.00
71772;BME280;59606;52.138;5.424;2023-04-01T17:02:32;100459.31;;;9.92;100.00
71772;BME280;59606;52.138;5.424;2023-04-01T17:07:54;100475.38;;;9.84;100.00
71772;BME280;59606;52.138;5.424;2023-04-01T17:10:46;100482.53;;;9.81;100.00
71772;BME280;59606;52.138;5.424;2023-04-01T17:13:34;100498.25;;;9.79;100.00
71772;BME280;59606;52.138;5.424;2023-04-01T17:16:28;100492.34;;;9.76;100.00
71772;BME280;59606;52.138;5.424;2023-04-01T17:19:05;100501.00;;;9.76;100.00
71772;BME280;59606;52.138;5.424;2023-04-01T17:21:45;100515.09;;;9.72;100.00
71772;BME280;59606;52.138;5.424;2023-04-01T17:24:41;100519.63;;;9.68;100.00
71772;BME280;59606;52.138;5.424;2023-04-01T17:40:50;100551.22;;;9.62;100.00
71772;BME280;59606;52.138;5.424;2023-04-01T17:43:32;100557.47;;;9.58;100.00
71772;BME280;59606;52.138;5.424;2023-04-01T17:49:19;100576.78;;;9.54;100.00
71772;BME280;59606;52.138;5.424;2023-04-01T17:54:31;100585.69;;;9.50;100.00
71772;BME280;59606;52.138;5.424;2023-04-01T18:00:02;100601.59;;;9.44;100.00
71772;BME280;59606;52.138;5.424;2023-04-01T18:03:00;100601.59;;;9.44;100.00
71772;BME280;59606;52.138;5.424;2023-04-01T18:06:06;100621.63;;;9.42;100.00
71772;BME280;59606;52.138;5.424;2023-04-01T18:20:20;100654.09;;;9.35;100.00
71772;BME280;59606;52.138;5.424;2023-04-01T18:23:00;100660.31;;;9.32;100.00
71772;BME280;59606;52.138;5.424;2023-04-01T18:25:32;100666.41;;;9.31;100.00
71772;BME280;59606;52.138;5.424;2023-04-01T18:28:38;100676.22;;;9.26;100.00
71772;BME280;59606;52.138;5.424;2023-04-01T18:31:19;100683.34;;;9.23;100.00
71772;BME280;59606;52.138;5.424;2023-04-01T18:34:02;100686.94;;;9.20;100.00
71772;BME280;59606;52.138;5.424;2023-04-01T18:36:46;100695.72;;;9.17;100.00
71772;BME280;59606;52.138;5.424;2023-04-01T18:39:22;100699.31;;;9.15;100.00
71772;BME280;59606;52.138;5.424;2023-04-01T18:44:49;100713.38;;;9.11;100.00
71772;BME280;59606;52.138;5.424;2023-04-01T18:47:40;100729.91;;;9.10;100.00
71772;BME280;59606;52.138;5.424;2023-04-01T18:50:30;100723.19;;;9.06;100.00
71772;BME280;59606;52.138;5.424;2023-04-01T18:53:29;100737.16;;;9.03;100.00
71772;BME280;59606;52.138;5.424;2023-04-01T18:56:14;100745.91;;;9.02;100.00
71772;BME280;59606;52.138;5.424;2023-04-01T18:58:54;100748.56;;;9.01;100.00
71772;BME280;59606;52.138;5.424;2023-04-01T19:01:36;100750.47;;;8.97;100.00
71772;BME280;59606;52.138;5.424;2023-04-01T19:04:30;100761.78;;;8.96;100.00
71772;BME280;59606;52.138;5.424;2023-04-01T19:07:21;100767.81;;;8.96;100.00
71772;BME280;59606;52.138;5.424;2023-04-01T19:09:48;100777.38;;;8.96;100.00
71772;BME280;59606;52.138;5.424;2023-04-01T19:12:54;100773.06;;;8.95;100.00
71772;BME280;59606;52.138;5.424;2023-04-01T19:15:38;100786.97;;;8.94;100.00
71772;BME280;59606;52.138;5.424;2023-04-01T19:20:47;100796.53;;;8.93;100.00
71772;BME280;59606;52.138;5.424;2023-04-01T19:23:51;100809.75;;;8.89;100.00
71772;BME280;59606;52.138;5.424;2023-04-01T19:26:34;100816.09;;;8.83;100.00
71772;BME280;59606;52.138;5.424;2023-04-01T19:29:37;100824.03;;;8.80;100.00
71772;BME280;59606;52.138;5.424;2023-04-01T19:35:07;100832.88;;;8.76;100.00
71772;BME280;59606;52.138;5.424;2023-04-01T19:37:58;100846.72;;;8.77;100.00
71772;BME280;59606;52.138;5.424;2023-04-01T19:48:53;100865.31;;;8.67;100.00
71772;BME280;59606;52.138;5.424;2023-04-01T19:57:16;100884.47;;;8.65;100.00
71772;BME280;59606;52.138;5.424;2023-04-01T20:04:44;100898.03;;;8.53;100.00
71772;BME280;59606;52.138;5.424;2023-04-01T20:10:14;100908.69;;;8.46;100.00
71772;BME280;59606;52.138;5.424;2023-04-01T20:15:33;100925.38;;;8.41;100.00
71772;BME280;59606;52.138;5.424;2023-04-01T20:18:08;100925.50;;;8.38;100.00
71772;BME280;59606;52.138;5.424;2023-04-01T20:20:39;100938.53;;;8.36;100.00
71772;BME280;59606;52.138;5.424;2023-04-01T20:25:43;100951.72;;;8.32;100.00
71772;BME280;59606;52.138;5.424;2023-04-01T20:33:41;100964.03;;;8.26;100.00
71772;BME280;59606;52.138;5.424;2023-04-01T20:36:23;100972.75;;;8.25;100.00
71772;BME280;59606;52.138;5.424;2023-04-01T20:44:03;100992.97;;;8.17;100.00
71772;BME280;59606;52.138;5.424;2023-04-01T20:47:01;100999.09;;;8.16;100.00
71772;BME280;59606;52.138;5.424;2023-04-01T20:52:49;101011.28;;;8.14;100.00
71772;BME280;59606;52.138;5.424;2023-04-01T20:56:02;101020.06;;;8.12;100.00
71772;BME280;59606;52.138;5.424;2023-04-01T20:58:38;101021.00;;;8.09;100.00
71772;BME280;59606;52.138;5.424;2023-04-01T21:06:58;101036.63;;;8.08;100.00
71772;BME280;59606;52.138;5.424;2023-04-01T21:26:47;101083.53;;;7.81;100.00
71772;BME280;59606;52.138;5.424;2023-04-01T21:32:40;101097.72;;;7.72;100.00
71772;BME280;59606;52.138;5.424;2023-04-01T21:35:52;101109.78;;;7.73;100.00
71772;BME280;59606;52.138;5.424;2023-04-01T21:44:10;101118.81;;;7.63;100.00
71772;BME280;59606;52.138;5.424;2023-04-01T21:50:04;101132.72;;;7.61;100.00
71772;BME280;59606;52.138;5.424;2023-04-01T21:52:54;101133.81;;;7.55;100.00
71772;BME280;59606;52.138;5.424;2023-04-01T22:04:14;101159.06;;;7.50;100.00
71772;BME280;59606;52.138;5.424;2023-04-01T22:07:03;101165.19;;;7.47;100.00
71772;BME280;59606;52.138;5.424;2023-04-01T22:09:39;101165.25;;;7.46;100.00
71772;BME280;59606;52.138;5.424;2023-04-01T22:12:50;101178.34;;;7.43;100.00
71772;BME280;59606;52.138;5.424;2023-04-01T22:18:21;101190.56;;;7.39;100.00
71772;BME280;59606;52.138;5.424;2023-04-01T22:21:04;101194.94;;;7.37;100.00